createdAt,value
2023-05-21T00:01:42.542Z,4.60
2023-05-21T00:04:09.632Z,4.97
2023-05-21T00:06:36.680Z,4.57
2023-05-21T00:09:05.743Z,4.90
2023-05-21T00:11:33.327Z,5.07
2023-05-21T00:14:00.220Z,4.60
2023-05-21T00:16:27.190Z,5.20
2023-05-21T00:18:54.696Z,4.90
2023-05-21T00:21:26.233Z,5.17
2023-05-21T00:23:57.092Z,4.47
2023-05-21T00:26:24.201Z,5.20
2023-05-21T00:28:54.477Z,5.40
2023-05-21T00:31:21.756Z,4.80
2023-05-21T00:33:48.680Z,4.83
2023-05-21T00:36:16.532Z,4.60
2023-05-21T00:38:44.314Z,5.30
2023-05-21T00:41:11.640Z,5.13
2023-05-21T00:43:41.623Z,5.40
2023-05-21T00:46:16.638Z,4.90
2023-05-21T00:48:47.678Z,5.30
2023-05-21T00:51:16.558Z,5.60
2023-05-21T00:53:44.428Z,5.00
2023-05-21T00:56:11.521Z,5.60
2023-05-21T00:58:40.547Z,5.03
2023-05-21T01:01:07.556Z,5.20
2023-05-21T01:03:38.506Z,5.13
2023-05-21T01:06:08.144Z,5.40
2023-05-21T01:08:37.553Z,5.63
2023-05-21T01:11:06.639Z,6.43
2023-05-21T01:13:38.030Z,5.50
2023-05-21T01:16:08.919Z,6.43
2023-05-21T01:18:37.945Z,6.10
2023-05-21T01:21:07.391Z,6.53
2023-05-21T01:23:34.626Z,5.40
2023-05-21T01:26:01.608Z,6.93
2023-05-21T01:28:29.767Z,5.50
2023-05-21T01:31:02.752Z,5.27
2023-05-21T01:33:50.393Z,6.00
2023-05-21T01:36:31.035Z,6.57
2023-05-21T01:39:06.742Z,6.20
2023-05-21T01:41:38.368Z,5.80
2023-05-21T01:44:07.120Z,6.37
2023-05-21T01:46:36.788Z,5.80
2023-05-21T01:49:06.298Z,5.60
2023-05-21T01:51:34.368Z,5.10
2023-05-21T01:54:02.192Z,5.90
2023-05-21T01:56:29.217Z,5.50
2023-05-21T01:58:59.795Z,5.90
2023-05-21T02:01:30.426Z,6.20
2023-05-21T02:03:58.166Z,6.27
2023-05-21T02:06:25.706Z,6.13
2023-05-21T02:08:52.654Z,6.77
2023-05-21T02:11:19.917Z,6.90
2023-05-21T02:13:46.897Z,6.47
2023-05-21T02:16:15.795Z,6.30
2023-05-21T02:18:46.350Z,5.93
2023-05-21T02:21:13.373Z,5.70
2023-05-21T02:23:42.541Z,6.27
2023-05-21T02:26:09.486Z,5.90
2023-05-21T02:28:38.446Z,5.73
2023-05-21T02:31:05.417Z,5.30
2023-05-21T02:33:32.437Z,6.00
2023-05-21T02:35:59.399Z,5.67
2023-05-21T02:38:26.332Z,6.03
2023-05-21T02:40:53.656Z,5.60
2023-05-21T02:43:20.802Z,5.60
2023-05-21T02:45:47.949Z,5.80
2023-05-21T02:48:15.172Z,5.60
2023-05-21T02:50:42.535Z,6.07
2023-05-21T02:53:09.620Z,6.20
2023-05-21T02:55:36.805Z,5.80
2023-05-21T02:58:03.965Z,6.00
2023-05-21T03:00:31.168Z,6.70
2023-05-21T03:03:00.349Z,5.97
2023-05-21T03:05:27.611Z,6.10
2023-05-21T03:07:54.537Z,5.90
2023-05-21T03:10:21.501Z,5.67
2023-05-21T03:12:48.454Z,5.57
2023-05-21T03:15:16.751Z,6.00
2023-05-21T03:17:44.435Z,5.57
2023-05-21T03:20:18.596Z,5.60
2023-05-21T03:22:46.410Z,6.20
2023-05-21T03:25:13.607Z,5.90
2023-05-21T03:27:40.766Z,5.57
2023-05-21T03:30:19.351Z,6.00
2023-05-21T03:33:06.564Z,6.40
2023-05-21T03:35:33.931Z,6.73
2023-05-21T03:38:01.782Z,5.60
2023-05-21T03:40:28.776Z,7.10
2023-05-21T03:42:55.750Z,7.30
2023-05-21T03:45:22.850Z,6.80
2023-05-21T03:48:10.078Z,6.03
2023-05-21T03:50:37.513Z,7.33
2023-05-21T03:53:05.660Z,6.60
2023-05-21T03:55:32.720Z,7.57
2023-05-21T03:57:59.747Z,6.60
2023-05-21T04:00:28.366Z,7.20
2023-05-21T04:02:55.758Z,6.10
2023-05-21T04:05:22.735Z,6.57
2023-05-21T04:07:50.440Z,7.20
2023-05-21T04:10:17.402Z,7.70
2023-05-21T04:12:44.459Z,7.00
2023-05-21T04:15:11.551Z,7.13
2023-05-21T04:17:40.006Z,7.07
2023-05-21T04:20:08.264Z,7.20
2023-05-21T04:22:35.324Z,6.50
2023-05-21T04:25:02.333Z,6.60
2023-05-21T04:27:35.357Z,7.47
2023-05-21T04:30:04.284Z,6.80
2023-05-21T04:32:34.874Z,6.47
2023-05-21T04:35:02.053Z,6.90
2023-05-21T04:37:30.124Z,8.20
2023-05-21T04:39:58.110Z,8.10
2023-05-21T04:42:26.183Z,6.90
2023-05-21T04:44:55.593Z,7.33
2023-05-21T04:47:22.900Z,8.17
2023-05-21T04:49:50.875Z,8.00
2023-05-21T04:52:17.927Z,8.20
2023-05-21T04:54:45.824Z,7.80
2023-05-21T04:57:13.057Z,8.40
2023-05-21T04:59:40.261Z,7.60
2023-05-21T05:02:07.290Z,7.77
2023-05-21T05:04:34.236Z,8.23
2023-05-21T05:07:01.703Z,8.80
2023-05-21T05:09:30.138Z,8.10
2023-05-21T05:11:57.138Z,9.03
2023-05-21T05:14:25.124Z,8.83
2023-05-21T05:16:52.176Z,9.63
2023-05-21T05:19:20.474Z,8.67
2023-05-21T05:21:47.888Z,9.97
2023-05-21T05:24:16.190Z,9.33
2023-05-21T05:26:43.734Z,8.80
2023-05-21T05:29:11.432Z,10.03
2023-05-21T05:31:38.429Z,11.20
2023-05-21T05:34:05.673Z,11.13
2023-05-21T05:36:33.635Z,10.40
2023-05-21T05:39:00.690Z,11.03
2023-05-21T05:41:27.844Z,11.33
2023-05-21T05:43:56.070Z,11.50
2023-05-21T05:46:26.201Z,10.90
2023-05-21T05:48:53.259Z,12.77
2023-05-21T05:51:20.359Z,10.93
2023-05-21T05:53:47.301Z,11.50
2023-05-21T05:56:14.396Z,11.37
2023-05-21T05:58:41.506Z,11.53
2023-05-21T06:01:11.781Z,10.90
2023-05-21T06:03:39.565Z,12.57
2023-05-21T06:06:12.065Z,11.43
2023-05-21T06:08:40.545Z,11.30
2023-05-21T06:11:07.553Z,11.90
2023-05-21T06:13:34.762Z,11.70
2023-05-21T06:16:04.188Z,11.33
2023-05-21T06:18:31.130Z,12.20
2023-05-21T06:20:58.061Z,12.20
2023-05-21T06:23:25.354Z,12.90
2023-05-21T06:25:53.073Z,11.17
2023-05-21T06:28:20.479Z,11.97
2023-05-21T06:30:48.888Z,13.27
2023-05-21T06:33:16.490Z,15.17
2023-05-21T06:35:44.183Z,14.30
2023-05-21T06:38:11.851Z,14.50
2023-05-21T06:40:38.785Z,14.10
2023-05-21T06:43:06.153Z,15.00
2023-05-21T06:46:08.260Z,16.43
2023-05-21T06:48:38.960Z,16.00
2023-05-21T06:51:06.125Z,17.10
2023-05-21T06:53:33.494Z,16.13
2023-05-21T06:56:00.820Z,16.03
2023-05-21T06:58:48.023Z,14.80
2023-05-21T07:01:16.615Z,17.73
2023-05-21T07:03:43.776Z,18.27
2023-05-21T07:06:10.732Z,17.67
2023-05-21T07:08:37.703Z,17.17
2023-05-21T07:11:04.717Z,16.00
2023-05-21T07:13:31.973Z,15.40
2023-05-21T07:15:58.962Z,17.00
2023-05-21T07:18:26.843Z,16.03
2023-05-21T07:20:53.897Z,14.93
2023-05-21T07:23:21.384Z,15.60
2023-05-21T07:25:48.418Z,15.93
2023-05-21T07:28:15.503Z,16.50
2023-05-21T07:30:42.488Z,17.33
2023-05-21T07:33:13.936Z,16.27
2023-05-21T07:35:41.022Z,14.20
2023-05-21T07:38:08.119Z,15.00
2023-05-21T07:40:35.037Z,15.33
2023-05-21T07:43:03.310Z,13.47
2023-05-21T07:45:31.721Z,12.63
2023-05-21T07:47:58.970Z,14.20
2023-05-21T07:50:27.129Z,11.90
2023-05-21T07:52:54.788Z,12.70
2023-05-21T07:55:21.956Z,12.00
2023-05-21T07:57:49.453Z,13.10
2023-05-21T08:00:19.043Z,12.33
2023-05-21T08:02:52.568Z,12.33
2023-05-21T08:05:21.219Z,12.83
2023-05-21T08:07:48.883Z,11.90
2023-05-21T08:10:17.853Z,13.10
2023-05-21T08:12:46.680Z,11.37
2023-05-21T08:15:13.898Z,11.80
2023-05-21T08:17:44.670Z,12.03
2023-05-21T08:20:13.481Z,11.80
2023-05-21T08:22:41.517Z,12.73
2023-05-21T08:25:09.437Z,11.20
2023-05-21T08:27:36.552Z,12.00
2023-05-21T08:30:05.670Z,11.67
2023-05-21T08:32:32.728Z,10.40
2023-05-21T08:35:00.751Z,11.90
2023-05-21T08:37:46.513Z,10.00
2023-05-21T08:40:23.770Z,11.23
2023-05-21T08:42:51.653Z,10.23
2023-05-21T08:45:44.911Z,10.93
2023-05-21T08:48:13.117Z,10.47
2023-05-21T08:50:41.555Z,10.20
2023-05-21T08:53:24.150Z,10.40
2023-05-21T08:55:57.400Z,10.17
2023-05-21T08:58:32.512Z,9.60
2023-05-21T09:00:59.814Z,8.80
2023-05-21T09:03:29.277Z,9.27
2023-05-21T09:05:57.547Z,8.10
2023-05-21T09:08:32.769Z,9.47
2023-05-21T09:11:03.564Z,8.97
2023-05-21T09:13:39.145Z,9.30
2023-05-21T09:16:12.548Z,8.80
2023-05-21T09:18:39.483Z,8.23
2023-05-21T09:21:26.460Z,8.63
2023-05-21T09:23:57.938Z,7.70
2023-05-21T09:26:26.448Z,7.73
2023-05-21T09:28:59.785Z,8.60
2023-05-21T09:31:27.311Z,7.70
2023-05-21T09:33:55.764Z,7.30
2023-05-21T09:36:25.569Z,7.50
2023-05-21T09:38:53.664Z,7.57
2023-05-21T09:41:22.310Z,7.30
2023-05-21T09:43:49.749Z,7.43
2023-05-21T09:46:26.095Z,7.57
2023-05-21T09:48:53.086Z,7.37
2023-05-21T09:51:21.687Z,7.30
2023-05-21T09:53:55.279Z,7.90
2023-05-21T09:56:32.275Z,7.67
2023-05-21T09:59:06.237Z,7.17
2023-05-21T10:01:34.350Z,7.70
2023-05-21T10:04:07.153Z,7.37
2023-05-21T10:06:42.894Z,7.57
2023-05-21T10:09:15.537Z,6.87
2023-05-21T10:11:45.002Z,7.30
2023-05-21T10:14:22.463Z,6.47
2023-05-21T10:16:50.419Z,7.10
2023-05-21T10:19:17.996Z,7.07
2023-05-21T10:21:45.995Z,7.03
2023-05-21T10:24:13.756Z,7.10
2023-05-21T10:26:41.794Z,7.00
2023-05-21T10:29:10.143Z,7.67
2023-05-21T10:31:39.098Z,6.97
2023-05-21T10:34:06.431Z,7.30
2023-05-21T10:36:34.324Z,7.67
2023-05-21T10:39:03.129Z,7.20
2023-05-21T10:41:46.564Z,6.80
2023-05-21T10:44:34.063Z,7.43
2023-05-21T10:47:37.896Z,7.43
2023-05-21T10:50:49.253Z,7.30
2023-05-21T10:53:56.565Z,7.20
2023-05-21T10:56:29.393Z,7.00
2023-05-21T10:59:28.228Z,6.90
2023-05-21T11:01:56.907Z,7.67
2023-05-21T11:04:26.948Z,7.27
2023-05-21T11:06:54.210Z,6.50
2023-05-21T11:09:21.118Z,6.30
2023-05-21T11:11:59.200Z,6.50
2023-05-21T11:14:56.790Z,6.40
2023-05-21T11:17:44.453Z,6.07
2023-05-21T11:20:16.662Z,6.83
2023-05-21T11:22:46.786Z,6.70
2023-05-21T11:25:15.484Z,6.80
2023-05-21T11:27:42.730Z,6.37
2023-05-21T11:30:19.904Z,6.90
2023-05-21T11:33:10.026Z,6.10
2023-05-21T11:35:44.809Z,6.50
2023-05-21T11:38:11.722Z,6.37
2023-05-21T11:40:50.554Z,6.83
2023-05-21T11:43:18.889Z,7.20
2023-05-21T11:45:47.311Z,5.57
2023-05-21T11:48:14.518Z,6.97
2023-05-21T11:50:44.710Z,6.00
2023-05-21T11:53:12.379Z,6.27
2023-05-21T11:55:43.494Z,6.63
2023-05-21T11:58:14.379Z,5.67
2023-05-21T12:00:41.536Z,5.47
2023-05-21T12:03:12.935Z,6.33
2023-05-21T12:05:49.804Z,6.30
2023-05-21T12:08:27.164Z,5.63
2023-05-21T12:11:03.367Z,4.90
2023-05-21T12:13:30.341Z,6.00
2023-05-21T12:15:57.292Z,5.30
2023-05-21T12:18:25.301Z,6.10
2023-05-21T12:20:52.526Z,5.07
2023-05-21T12:23:30.349Z,5.53
2023-05-21T12:25:57.385Z,5.60
2023-05-21T12:28:24.884Z,6.00
2023-05-21T12:30:53.489Z,5.70
2023-05-21T12:33:21.200Z,4.60
2023-05-21T12:35:51.567Z,5.30
2023-05-21T12:38:18.647Z,5.30
2023-05-21T12:40:46.058Z,5.20
2023-05-21T12:43:13.262Z,5.63
2023-05-21T12:45:40.728Z,5.70
2023-05-21T12:48:08.112Z,5.47
2023-05-21T12:50:39.247Z,5.10
2023-05-21T12:53:09.976Z,5.43
2023-05-21T12:55:36.909Z,5.20
2023-05-21T12:58:07.847Z,4.90
2023-05-21T13:00:35.239Z,4.83
2023-05-21T13:03:04.510Z,5.00
2023-05-21T13:05:31.794Z,4.77
2023-05-21T13:07:58.823Z,4.60
2023-05-21T13:10:25.767Z,5.30
2023-05-21T13:12:52.697Z,4.80
2023-05-21T13:15:19.979Z,4.87
2023-05-21T13:17:48.529Z,5.40
2023-05-21T13:20:26.236Z,5.07
2023-05-21T13:22:53.976Z,4.80
2023-05-21T13:25:24.821Z,4.70
2023-05-21T13:27:53.241Z,5.00
2023-05-21T13:30:21.987Z,5.53
2023-05-21T13:32:49.231Z,5.40
2023-05-21T13:35:16.782Z,5.60
2023-05-21T13:37:44.478Z,5.77
2023-05-21T13:40:17.012Z,4.60
2023-05-21T13:42:49.212Z,5.60
2023-05-21T13:45:20.071Z,5.10
2023-05-21T13:47:48.133Z,4.50
2023-05-21T13:50:16.190Z,5.00
2023-05-21T13:52:43.231Z,5.03
2023-05-21T13:55:10.712Z,5.40
2023-05-21T13:57:37.795Z,5.90
2023-05-21T14:00:05.887Z,4.60
2023-05-21T14:02:34.729Z,5.40
2023-05-21T14:05:01.834Z,4.73
2023-05-21T14:07:28.762Z,5.43
2023-05-21T14:09:56.062Z,4.60
2023-05-21T14:12:23.020Z,6.70
2023-05-21T14:14:50.021Z,5.33
2023-05-21T14:17:17.079Z,5.23
2023-05-21T14:19:44.135Z,5.03
2023-05-21T14:22:11.268Z,5.60
2023-05-21T14:24:38.234Z,5.07
2023-05-21T14:27:05.315Z,4.97
2023-05-21T14:29:33.214Z,4.93
2023-05-21T14:32:00.192Z,5.30
2023-05-21T14:34:27.264Z,4.93
2023-05-21T14:36:54.217Z,4.80
2023-05-21T14:39:21.153Z,4.57
2023-05-21T14:41:48.079Z,5.17
2023-05-21T14:44:15.007Z,5.53
2023-05-21T14:46:42.319Z,4.63
2023-05-21T14:49:09.273Z,4.60
2023-05-21T14:51:36.173Z,4.50
2023-05-21T14:54:03.188Z,4.73
2023-05-21T14:56:30.099Z,4.73
2023-05-21T14:58:57.015Z,4.57
2023-05-21T15:01:24.112Z,4.90
2023-05-21T15:03:51.409Z,4.97
2023-05-21T15:06:18.537Z,4.60
2023-05-21T15:08:45.478Z,5.73
2023-05-21T15:11:12.408Z,4.97
2023-05-21T15:13:39.710Z,4.60
2023-05-21T15:16:06.826Z,4.73
2023-05-21T15:18:33.853Z,5.30
2023-05-21T15:21:00.936Z,5.10
2023-05-21T15:23:28.046Z,4.63
2023-05-21T15:25:55.107Z,5.00
2023-05-21T15:28:23.024Z,5.10
2023-05-21T15:30:50.134Z,5.10
2023-05-21T15:33:17.119Z,5.07
2023-05-21T15:35:44.454Z,4.93
2023-05-21T15:38:11.706Z,4.80
2023-05-21T15:40:41.188Z,5.00
2023-05-21T15:43:08.256Z,5.40
2023-05-21T15:45:35.423Z,6.47
2023-05-21T15:48:02.553Z,8.00
2023-05-21T15:50:29.636Z,7.30
2023-05-21T15:52:56.563Z,8.60
2023-05-21T15:55:23.480Z,7.80
2023-05-21T15:57:50.706Z,7.30
2023-05-21T16:00:17.770Z,7.33
2023-05-21T16:02:44.817Z,8.07
2023-05-21T16:05:11.800Z,7.53
2023-05-21T16:07:38.737Z,7.43
2023-05-21T16:10:09.303Z,6.87
2023-05-21T16:12:36.236Z,7.60
2023-05-21T16:15:03.187Z,7.90
2023-05-21T16:17:30.150Z,7.73
2023-05-21T16:19:57.139Z,7.90
2023-05-21T16:22:24.640Z,6.80
2023-05-21T16:24:51.638Z,8.43
2023-05-21T16:27:18.576Z,7.50
2023-05-21T16:29:45.492Z,7.90
2023-05-21T16:32:13.996Z,8.20
2023-05-21T16:34:41.231Z,7.70
2023-05-21T16:37:09.636Z,8.30
2023-05-21T16:39:36.995Z,7.37
2023-05-21T16:42:04.028Z,8.00
2023-05-21T16:44:31.994Z,7.57
2023-05-21T16:47:00.227Z,7.67
2023-05-21T16:49:27.886Z,7.33
2023-05-21T16:51:54.970Z,7.33
2023-05-21T16:54:22.022Z,7.60
2023-05-21T16:56:48.971Z,8.00
2023-05-21T16:59:16.064Z,7.40
2023-05-21T17:01:43.113Z,7.77
2023-05-21T17:04:10.256Z,7.50
2023-05-21T17:06:37.246Z,8.17
2023-05-21T17:09:04.250Z,6.87
2023-05-21T17:11:31.581Z,7.67
2023-05-21T17:13:58.583Z,7.77
2023-05-21T17:16:25.544Z,7.23
2023-05-21T17:18:52.550Z,7.30
2023-05-21T17:21:19.714Z,8.20
2023-05-21T17:23:46.704Z,7.57
2023-05-21T17:26:13.950Z,8.10
2023-05-21T17:28:41.045Z,7.60
2023-05-21T17:31:09.487Z,7.03
2023-05-21T17:33:37.718Z,8.00
2023-05-21T17:36:04.883Z,7.70
2023-05-21T17:38:31.835Z,7.23
2023-05-21T17:40:59.265Z,7.50
2023-05-21T17:43:31.801Z,7.53
2023-05-21T17:45:58.793Z,7.60
2023-05-21T17:48:26.057Z,7.67
2023-05-21T17:50:53.078Z,7.40
2023-05-21T17:53:20.035Z,7.60
2023-05-21T17:55:47.041Z,7.57
2023-05-21T17:58:13.952Z,7.57
2023-05-21T18:00:40.900Z,7.80
2023-05-21T18:03:07.945Z,9.07
2023-05-21T18:05:35.540Z,8.33
2023-05-21T18:08:02.875Z,8.60
2023-05-21T18:10:30.043Z,7.70
2023-05-21T18:12:57.054Z,7.90
2023-05-21T18:15:24.018Z,7.93
2023-05-21T18:17:51.000Z,8.30
2023-05-21T18:20:18.647Z,8.40
2023-05-21T18:22:45.628Z,8.00
2023-05-21T18:25:12.559Z,7.83
2023-05-21T18:27:39.462Z,8.50
2023-05-21T18:30:07.256Z,7.80
2023-05-21T18:32:34.843Z,8.33
2023-05-21T18:35:02.333Z,8.33
2023-05-21T18:37:29.550Z,8.47
2023-05-21T18:39:56.510Z,7.40
2023-05-21T18:42:23.482Z,8.10
2023-05-21T18:44:53.462Z,8.00
2023-05-21T18:47:20.985Z,8.50
2023-05-21T18:49:47.975Z,8.07
2023-05-21T18:52:14.941Z,8.20
2023-05-21T18:54:41.840Z,8.10
2023-05-21T18:57:08.765Z,8.97
2023-05-21T18:59:36.288Z,8.20
2023-05-21T19:02:04.459Z,8.83
2023-05-21T19:04:31.484Z,8.93
2023-05-21T19:06:58.621Z,7.50
2023-05-21T19:09:25.602Z,8.20
2023-05-21T19:11:52.541Z,8.23
2023-05-21T19:14:20.954Z,8.17
2023-05-21T19:16:48.030Z,7.70
2023-05-21T19:19:14.993Z,8.63
2023-05-21T19:21:41.949Z,8.00
2023-05-21T19:24:08.925Z,8.27
2023-05-21T19:26:35.889Z,8.00
2023-05-21T19:29:02.808Z,8.57
2023-05-21T19:31:29.790Z,8.90
2023-05-21T19:33:56.748Z,8.57
2023-05-21T19:36:25.030Z,7.27
2023-05-21T19:38:52.024Z,8.40
2023-05-21T19:41:19.930Z,8.10
2023-05-21T19:43:47.039Z,8.23
2023-05-21T19:46:15.961Z,8.80
2023-05-21T19:48:45.283Z,9.00
2023-05-21T19:51:12.231Z,9.40
2023-05-21T19:53:39.179Z,8.80
2023-05-21T19:56:06.221Z,9.40
2023-05-21T19:58:33.195Z,8.90
2023-05-21T20:01:00.325Z,7.13
2023-05-21T20:03:28.586Z,8.20
2023-05-21T20:05:55.550Z,7.47
2023-05-21T20:08:22.964Z,8.03
2023-05-21T20:10:51.911Z,7.67
2023-05-21T20:13:19.626Z,7.20
2023-05-21T20:15:47.846Z,8.10
2023-05-21T20:18:15.482Z,7.80
2023-05-21T20:20:43.144Z,8.47
2023-05-21T20:23:10.144Z,7.67
2023-05-21T20:25:37.064Z,8.93
2023-05-21T20:28:05.204Z,7.80
2023-05-21T20:30:34.477Z,8.13
2023-05-21T20:33:02.799Z,7.83
2023-05-21T20:35:30.566Z,7.57
2023-05-21T20:37:57.565Z,8.30
2023-05-21T20:40:24.538Z,7.37
2023-05-21T20:42:53.306Z,8.30
2023-05-21T20:45:21.010Z,8.00
2023-05-21T20:47:49.660Z,8.57
2023-05-21T20:50:17.705Z,8.40
2023-05-21T20:52:47.099Z,8.23
2023-05-21T20:55:14.859Z,9.23
2023-05-21T20:57:42.057Z,9.10
2023-05-21T21:00:11.807Z,8.80
2023-05-21T21:02:39.177Z,7.53
2023-05-21T21:05:10.118Z,8.10
2023-05-21T21:07:37.746Z,8.87
2023-05-21T21:10:05.348Z,8.30
2023-05-21T21:12:32.247Z,8.20
2023-05-21T21:14:59.141Z,8.47
2023-05-21T21:17:26.173Z,8.63
2023-05-21T21:19:53.124Z,8.23
2023-05-21T21:22:20.037Z,8.53
2023-05-21T21:24:47.888Z,8.73
2023-05-21T21:27:14.848Z,8.90
2023-05-21T21:29:41.737Z,8.40
2023-05-21T21:32:08.631Z,9.00
2023-05-21T21:34:35.515Z,8.17
2023-05-21T21:37:02.441Z,8.80
2023-05-21T21:39:29.336Z,9.27
2023-05-21T21:41:56.252Z,9.50
2023-05-21T21:44:23.137Z,9.60
2023-05-21T21:46:50.106Z,9.43
2023-05-21T21:49:17.499Z,9.63
2023-05-21T21:51:44.934Z,10.37
2023-05-21T21:54:12.088Z,9.50
2023-05-21T21:56:39.012Z,9.57
2023-05-21T21:59:05.987Z,9.97
2023-05-21T22:01:33.148Z,9.20
2023-05-21T22:04:00.115Z,9.43
2023-05-21T22:06:27.765Z,9.67
2023-05-21T22:08:54.931Z,8.70
2023-05-21T22:11:22.018Z,9.53
2023-05-21T22:13:49.215Z,9.20
2023-05-21T22:16:16.225Z,9.87
2023-05-21T22:18:43.202Z,9.33
2023-05-21T22:21:11.014Z,9.10
2023-05-21T22:23:38.695Z,9.30
2023-05-21T22:26:09.479Z,8.93
2023-05-21T22:28:36.467Z,8.90
2023-05-21T22:31:03.544Z,9.97
2023-05-21T22:33:30.703Z,9.47
2023-05-21T22:35:58.077Z,11.20
2023-05-21T22:38:25.790Z,10.93
2023-05-21T22:40:52.788Z,10.70
2023-05-21T22:43:19.822Z,10.50
2023-05-21T22:45:46.977Z,9.43
2023-05-21T22:48:14.207Z,9.50
2023-05-21T22:50:41.478Z,10.03
2023-05-21T22:53:08.599Z,10.27
2023-05-21T22:55:35.532Z,9.20
2023-05-21T22:58:02.490Z,9.83
2023-05-21T23:00:29.573Z,9.90
2023-05-21T23:02:56.651Z,8.70
2023-05-21T23:05:23.769Z,9.47
2023-05-21T23:07:50.789Z,9.60
2023-05-21T23:10:17.727Z,9.40
2023-05-21T23:12:44.673Z,8.97
2023-05-21T23:15:11.726Z,9.73
2023-05-21T23:17:38.922Z,9.60
2023-05-21T23:20:08.730Z,10.30
2023-05-21T23:22:35.886Z,9.30
2023-05-21T23:25:03.738Z,9.70
2023-05-21T23:27:30.698Z,9.97
2023-05-21T23:29:57.616Z,8.93
2023-05-21T23:32:24.701Z,9.73
2023-05-21T23:34:51.668Z,10.10
2023-05-21T23:37:19.157Z,9.30
2023-05-21T23:39:49.539Z,9.60
2023-05-21T23:42:17.426Z,9.60
2023-05-21T23:44:44.745Z,10.10
2023-05-21T23:47:11.821Z,9.23
2023-05-21T23:49:39.649Z,8.90
2023-05-21T23:52:07.291Z,10.07
2023-05-21T23:54:34.241Z,10.40
2023-05-21T23:57:02.094Z,10.30
2023-05-21T23:59:29.268Z,9.77
